createdAt,value
2019-06-26T00:00:36.770Z,5.57
2019-06-26T00:03:07.106Z,5.20
2019-06-26T00:05:37.421Z,6.40
2019-06-26T00:08:07.838Z,6.20
2019-06-26T00:10:38.685Z,5.57
2019-06-26T00:13:24.840Z,5.43
2019-06-26T00:15:40.840Z,6.27
2019-06-26T00:18:11.104Z,7.67
2019-06-26T00:20:41.386Z,5.50
2019-06-26T00:23:12.146Z,5.07
2019-06-26T00:25:42.381Z,5.13
2019-06-26T00:28:14.010Z,5.20
2019-06-26T00:30:44.340Z,6.37
2019-06-26T00:33:14.633Z,9.43
2019-06-26T00:35:53.518Z,5.70
2019-06-26T00:38:23.801Z,5.60
2019-06-26T00:40:54.143Z,6.67
2019-06-26T00:43:24.360Z,5.23
2019-06-26T00:45:54.624Z,5.63
2019-06-26T00:48:24.883Z,5.00
2019-06-26T00:50:56.545Z,5.73
2019-06-26T00:53:26.790Z,5.63
2019-06-26T00:55:55.895Z,5.73
2019-06-26T00:58:26.015Z,5.63
2019-06-26T01:00:56.236Z,7.33
2019-06-26T01:03:26.884Z,6.17
2019-06-26T01:05:57.207Z,6.80
2019-06-26T01:08:27.518Z,6.03
2019-06-26T01:10:57.700Z,6.23
2019-06-26T01:13:28.021Z,6.40
2019-06-26T01:15:58.347Z,6.30
2019-06-26T01:18:41.892Z,6.10
2019-06-26T01:21:12.202Z,5.83
2019-06-26T01:23:42.612Z,6.63
2019-06-26T01:26:12.867Z,6.57
2019-06-26T01:28:43.214Z,7.27
2019-06-26T01:31:13.823Z,5.87
2019-06-26T01:33:44.153Z,5.13
2019-06-26T01:36:14.395Z,4.97
2019-06-26T01:38:44.642Z,5.70
2019-06-26T01:41:14.963Z,5.73
2019-06-26T01:43:45.224Z,5.73
2019-06-26T01:46:17.024Z,7.47
2019-06-26T01:48:47.370Z,5.87
2019-06-26T01:51:17.752Z,5.83
2019-06-26T01:53:47.982Z,6.50
2019-06-26T01:56:18.232Z,6.07
2019-06-26T01:58:48.620Z,5.57
2019-06-26T02:01:20.353Z,5.77
2019-06-26T02:03:50.645Z,5.77
2019-06-26T02:06:20.905Z,5.27
2019-06-26T02:08:51.158Z,6.40
2019-06-26T02:11:21.523Z,5.57
2019-06-26T02:13:52.177Z,7.37
2019-06-26T02:16:22.608Z,7.20
2019-06-26T02:18:59.653Z,6.27
2019-06-26T02:21:30.512Z,6.47
2019-06-26T02:24:00.808Z,6.77
2019-06-26T02:26:31.139Z,5.87
2019-06-26T02:29:03.894Z,5.83
2019-06-26T02:31:34.254Z,5.90
2019-06-26T02:34:04.530Z,5.87
2019-06-26T02:36:34.872Z,5.50
2019-06-26T02:39:07.797Z,5.77
2019-06-26T02:41:38.370Z,5.80
2019-06-26T02:44:08.897Z,5.23
2019-06-26T02:46:39.106Z,5.20
2019-06-26T02:49:09.439Z,5.00
2019-06-26T02:51:39.694Z,5.20
2019-06-26T02:54:09.946Z,4.90
2019-06-26T02:56:41.005Z,4.67
2019-06-26T02:59:11.297Z,4.93
2019-06-26T03:01:41.560Z,6.60
2019-06-26T03:04:11.909Z,4.93
2019-06-26T03:06:42.148Z,6.60
2019-06-26T03:09:12.435Z,5.00
2019-06-26T03:11:43.258Z,4.93
2019-06-26T03:14:13.600Z,5.83
2019-06-26T03:16:43.872Z,6.70
2019-06-26T03:19:14.198Z,5.17
2019-06-26T03:21:44.542Z,5.40
2019-06-26T03:24:14.841Z,5.63
2019-06-26T03:26:45.547Z,5.50
2019-06-26T03:29:15.854Z,6.80
2019-06-26T03:31:46.111Z,5.50
2019-06-26T03:34:16.436Z,5.80
2019-06-26T03:36:46.758Z,5.73
2019-06-26T03:39:17.369Z,5.70
2019-06-26T03:41:47.701Z,5.80
2019-06-26T03:44:17.994Z,5.40
2019-06-26T03:46:48.299Z,6.13
2019-06-26T03:49:18.550Z,6.77
2019-06-26T03:51:48.801Z,5.60
2019-06-26T03:54:19.501Z,5.83
2019-06-26T03:56:49.694Z,6.47
2019-06-26T03:59:19.945Z,6.13
2019-06-26T04:01:50.450Z,5.70
2019-06-26T04:04:20.771Z,5.90
2019-06-26T04:06:51.027Z,7.13
2019-06-26T04:09:21.252Z,7.73
2019-06-26T04:11:51.440Z,6.30
2019-06-26T04:14:24.957Z,5.87
2019-06-26T04:16:55.230Z,5.70
2019-06-26T04:19:25.439Z,7.00
2019-06-26T04:21:55.643Z,5.90
2019-06-26T04:24:25.854Z,6.63
2019-06-26T04:26:56.398Z,12.30
2019-06-26T04:29:26.616Z,6.73
2019-06-26T04:31:56.948Z,7.23
2019-06-26T04:34:27.171Z,6.60
2019-06-26T04:36:57.435Z,6.20
2019-06-26T04:39:27.679Z,6.97
2019-06-26T04:41:58.258Z,7.90
2019-06-26T04:44:28.496Z,9.73
2019-06-26T04:46:58.779Z,6.17
2019-06-26T04:49:29.002Z,6.70
2019-06-26T04:52:00.274Z,6.90
2019-06-26T04:54:30.546Z,9.67
2019-06-26T04:57:03.207Z,6.67
2019-06-26T04:59:34.559Z,6.20
2019-06-26T05:02:04.804Z,6.70
2019-06-26T05:04:35.038Z,6.27
2019-06-26T05:07:05.285Z,8.67
2019-06-26T05:09:35.847Z,6.10
2019-06-26T05:12:07.371Z,7.97
2019-06-26T05:14:37.702Z,6.63
2019-06-26T05:17:07.889Z,6.50
2019-06-26T05:19:38.148Z,6.63
2019-06-26T05:22:08.388Z,12.07
2019-06-26T05:24:38.896Z,9.40
2019-06-26T05:27:09.178Z,6.37
2019-06-26T05:29:39.504Z,5.97
2019-06-26T05:32:09.768Z,6.33
2019-06-26T05:34:39.990Z,6.50
2019-06-26T05:37:10.366Z,6.27
2019-06-26T05:39:44.179Z,5.87
2019-06-26T05:42:14.421Z,8.23
2019-06-26T05:44:44.648Z,5.57
2019-06-26T05:47:14.875Z,7.40
2019-06-26T05:49:45.085Z,6.50
2019-06-26T05:52:16.747Z,5.80
2019-06-26T05:54:47.262Z,6.47
2019-06-26T05:57:17.481Z,5.00
2019-06-26T05:59:47.671Z,6.27
2019-06-26T06:02:17.893Z,5.37
2019-06-26T06:04:53.609Z,4.63
2019-06-26T06:07:23.826Z,4.57
2019-06-26T06:09:54.065Z,4.50
2019-06-26T06:12:25.680Z,4.73
2019-06-26T06:14:55.911Z,4.50
2019-06-26T06:17:26.160Z,4.73
2019-06-26T06:19:56.385Z,4.23
2019-06-26T06:22:27.568Z,4.40
2019-06-26T06:25:16.624Z,6.60
2019-06-26T06:27:46.851Z,4.60
2019-06-26T06:30:17.087Z,4.50
2019-06-26T06:32:47.361Z,4.73
2019-06-26T06:35:17.597Z,5.37
2019-06-26T06:37:49.119Z,4.47
2019-06-26T06:40:19.317Z,4.50
2019-06-26T06:42:49.642Z,4.33
2019-06-26T06:45:20.049Z,4.63
2019-06-26T06:47:50.388Z,4.63
2019-06-26T06:50:20.731Z,5.10
2019-06-26T06:52:52.274Z,5.37
2019-06-26T06:55:22.567Z,4.80
2019-06-26T06:57:52.763Z,5.10
2019-06-26T07:00:23.022Z,4.47
2019-06-26T07:02:54.865Z,5.63
2019-06-26T07:05:25.444Z,4.93
2019-06-26T07:07:55.600Z,4.43
2019-06-26T07:10:25.956Z,5.13
2019-06-26T07:12:56.280Z,4.13
2019-06-26T07:15:26.485Z,5.13
2019-06-26T07:17:56.663Z,4.77
2019-06-26T07:20:29.239Z,5.00
2019-06-26T07:22:59.425Z,4.63
2019-06-26T07:25:29.729Z,4.80
2019-06-26T07:28:01.941Z,4.73
2019-06-26T07:30:31.905Z,4.57
2019-06-26T07:33:09.132Z,4.27
2019-06-26T07:35:39.352Z,4.60
2019-06-26T07:38:09.576Z,4.87
2019-06-26T07:40:39.812Z,6.17
2019-06-26T07:43:10.031Z,5.83
2019-06-26T07:45:40.290Z,5.60
2019-06-26T07:48:14.907Z,9.23
2019-06-26T07:50:45.171Z,5.73
2019-06-26T07:53:15.452Z,4.83
2019-06-26T07:55:45.675Z,6.13
2019-06-26T07:58:15.870Z,5.70
2019-06-26T08:00:46.162Z,4.83
2019-06-26T08:03:16.644Z,6.30
2019-06-26T08:05:46.940Z,7.40
2019-06-26T08:08:17.233Z,9.83
2019-06-26T08:10:47.536Z,6.27
2019-06-26T08:13:17.803Z,4.47
2019-06-26T08:15:48.414Z,5.73
2019-06-26T08:18:18.677Z,4.90
2019-06-26T08:21:00.686Z,4.80
2019-06-26T08:23:20.829Z,6.20
2019-06-26T08:25:51.059Z,5.83
2019-06-26T08:28:21.344Z,5.17
2019-06-26T08:30:58.028Z,4.47
2019-06-26T08:33:28.211Z,9.90
2019-06-26T08:35:58.417Z,5.50
2019-06-26T08:38:28.620Z,6.43
2019-06-26T08:40:58.938Z,5.13
2019-06-26T08:43:35.039Z,5.83
2019-06-26T08:46:05.301Z,4.47
2019-06-26T08:48:40.727Z,8.57
2019-06-26T08:51:16.755Z,6.97
2019-06-26T08:53:49.704Z,9.17
2019-06-26T08:56:19.945Z,7.37
2019-06-26T08:58:55.753Z,5.50
2019-06-26T09:01:25.972Z,5.57
2019-06-26T09:03:58.251Z,7.73
2019-06-26T09:09:17.108Z,6.93
2019-06-26T09:11:47.510Z,6.13
2019-06-26T09:14:17.695Z,5.80
2019-06-26T09:16:48.019Z,8.43
2019-06-26T09:19:19.361Z,6.53
2019-06-26T09:21:49.664Z,6.07
2019-06-26T09:24:21.168Z,8.37
2019-06-26T09:26:51.381Z,5.50
2019-06-26T09:29:23.934Z,12.53
2019-06-26T09:31:56.633Z,10.20
2019-06-26T09:34:26.881Z,5.93
2019-06-26T09:36:57.090Z,9.93
2019-06-26T09:39:27.611Z,7.60
2019-06-26T09:41:57.838Z,5.83
2019-06-26T09:44:28.185Z,5.10
2019-06-26T09:46:58.437Z,6.20
2019-06-26T09:49:28.758Z,6.67
2019-06-26T09:51:59.103Z,10.30
2019-06-26T09:54:33.074Z,5.30
2019-06-26T09:57:03.299Z,9.47
2019-06-26T09:59:33.550Z,9.03
2019-06-26T10:02:03.795Z,8.37
2019-06-26T10:04:34.071Z,5.27
2019-06-26T10:07:12.397Z,6.93
2019-06-26T10:09:42.619Z,7.47
2019-06-26T10:12:12.836Z,9.33
2019-06-26T10:14:47.824Z,5.03
2019-06-26T10:17:15.069Z,4.33
2019-06-26T10:19:45.291Z,7.87
2019-06-26T10:22:22.249Z,5.53
2019-06-26T10:24:52.493Z,7.87
2019-06-26T10:27:22.721Z,7.10
2019-06-26T10:29:53.994Z,6.53
2019-06-26T10:32:24.204Z,7.07
2019-06-26T10:34:55.862Z,7.90
2019-06-26T10:37:26.111Z,7.13
2019-06-26T10:39:57.276Z,10.50
2019-06-26T10:42:27.615Z,7.83
2019-06-26T10:44:57.802Z,5.13
2019-06-26T10:53:05.429Z,7.77
2019-06-26T10:55:35.931Z,7.47
2019-06-26T10:58:06.296Z,6.73
2019-06-26T11:00:36.490Z,8.10
2019-06-26T11:03:06.798Z,8.93
2019-06-26T11:05:37.065Z,7.53
2019-06-26T11:08:14.832Z,7.40
2019-06-26T11:10:45.184Z,7.07
2019-06-26T11:13:15.587Z,7.33
2019-06-26T11:15:45.782Z,8.57
2019-06-26T11:18:16.991Z,6.03
2019-06-26T11:20:47.519Z,8.13
2019-06-26T11:23:17.786Z,10.57
2019-06-26T11:28:36.282Z,5.77
2019-06-26T11:31:06.548Z,6.63
2019-06-26T11:33:36.793Z,7.43
2019-06-26T11:36:07.594Z,7.80
2019-06-26T11:38:37.825Z,7.07
2019-06-26T11:41:08.036Z,10.93
2019-06-26T11:43:38.966Z,9.07
2019-06-26T11:46:09.230Z,7.20
2019-06-26T11:48:40.411Z,7.63
2019-06-26T11:51:14.448Z,8.53
2019-06-26T11:53:44.778Z,8.17
2019-06-26T11:56:14.974Z,7.87
2019-06-26T11:58:45.229Z,6.80
2019-06-26T12:01:15.464Z,4.73
2019-06-26T12:03:51.545Z,6.57
2019-06-26T12:06:21.762Z,7.43
2019-06-26T12:08:52.130Z,8.33
2019-06-26T12:11:22.384Z,10.30
2019-06-26T12:13:52.617Z,7.37
2019-06-26T12:16:22.800Z,9.13
2019-06-26T12:18:54.346Z,6.70
2019-06-26T12:21:24.654Z,6.07
2019-06-26T12:23:54.884Z,4.90
2019-06-26T12:26:25.124Z,10.97
2019-06-26T12:28:55.475Z,6.80
2019-06-26T12:31:26.007Z,7.93
2019-06-26T12:33:56.218Z,5.87
2019-06-26T12:36:26.475Z,11.30
2019-06-26T12:38:56.660Z,7.77
2019-06-26T12:41:26.879Z,7.07
2019-06-26T12:43:57.086Z,7.77
2019-06-26T12:46:29.799Z,7.83
2019-06-26T12:51:49.285Z,10.10
2019-06-26T12:54:19.502Z,8.07
2019-06-26T12:56:49.725Z,6.27
2019-06-26T12:59:20.276Z,7.37
2019-06-26T13:01:50.510Z,10.70
2019-06-26T13:04:20.783Z,9.00
2019-06-26T13:06:52.087Z,10.03
2019-06-26T13:09:22.292Z,6.17
2019-06-26T13:11:52.934Z,7.77
2019-06-26T13:14:23.144Z,11.67
2019-06-26T13:16:53.419Z,6.43
2019-06-26T13:19:27.159Z,8.33
2019-06-26T13:21:57.367Z,7.63
2019-06-26T13:24:27.621Z,10.47
2019-06-26T13:26:57.980Z,10.20
2019-06-26T13:29:28.657Z,10.87
2019-06-26T13:31:58.919Z,6.33
2019-06-26T13:34:29.174Z,7.10
2019-06-26T13:36:59.454Z,8.93
2019-06-26T13:39:29.716Z,7.67
2019-06-26T13:42:01.503Z,8.63
2019-06-26T13:44:31.776Z,8.27
2019-06-26T13:47:02.063Z,8.57
2019-06-26T13:49:32.331Z,11.70
2019-06-26T13:52:02.645Z,9.90
2019-06-26T13:54:35.397Z,8.37
2019-06-26T13:57:05.632Z,10.57
2019-06-26T13:59:35.918Z,7.70
2019-06-26T14:02:06.100Z,13.13
2019-06-26T14:04:36.386Z,7.23
2019-06-26T14:07:08.677Z,7.97
2019-06-26T14:09:38.823Z,7.80
2019-06-26T14:12:09.059Z,5.00
2019-06-26T14:14:56.194Z,7.43
2019-06-26T14:17:11.284Z,7.83
2019-06-26T14:19:41.615Z,10.90
2019-06-26T14:22:13.269Z,6.37
2019-06-26T14:24:43.564Z,9.07
2019-06-26T14:27:13.775Z,7.90
2019-06-26T14:29:44.032Z,7.63
2019-06-26T14:32:14.281Z,11.87
2019-06-26T14:34:45.929Z,4.77
2019-06-26T14:37:16.196Z,7.33
2019-06-26T14:39:46.436Z,12.30
2019-06-26T14:42:16.826Z,10.80
2019-06-26T14:44:47.179Z,8.87
2019-06-26T14:47:18.867Z,9.23
2019-06-26T14:49:49.078Z,6.27
2019-06-26T14:52:19.349Z,10.37
2019-06-26T14:54:49.614Z,7.60
2019-06-26T14:57:19.897Z,6.07
2019-06-26T14:59:50.160Z,11.27
2019-06-26T15:02:32.022Z,11.37
2019-06-26T15:05:02.482Z,9.00
2019-06-26T15:07:32.810Z,8.50
2019-06-26T15:10:04.155Z,8.23
2019-06-26T15:12:34.401Z,7.67
2019-06-26T15:15:09.302Z,7.50
2019-06-26T15:17:39.555Z,10.37
2019-06-26T15:20:09.839Z,6.20
2019-06-26T15:22:40.219Z,11.17
2019-06-26T15:25:10.516Z,10.57
2019-06-26T15:27:40.719Z,8.00
2019-06-26T15:30:11.284Z,8.97
2019-06-26T15:32:41.603Z,10.47
2019-06-26T15:35:11.870Z,9.40
2019-06-26T15:37:44.772Z,13.77
2019-06-26T15:40:14.534Z,5.30
2019-06-26T15:42:44.776Z,6.93
2019-06-26T15:45:15.325Z,10.00
2019-06-26T15:47:45.709Z,12.90
2019-06-26T15:50:15.958Z,10.97
2019-06-26T15:52:46.252Z,10.40
2019-06-26T15:55:17.526Z,7.93
2019-06-26T15:57:54.921Z,10.57
2019-06-26T16:00:25.214Z,11.27
2019-06-26T16:02:55.490Z,7.20
2019-06-26T16:05:25.781Z,10.03
2019-06-26T16:07:56.018Z,7.40
2019-06-26T16:10:29.068Z,11.77
2019-06-26T16:12:59.328Z,10.90
2019-06-26T16:15:29.641Z,8.13
2019-06-26T16:18:11.046Z,8.93
2019-06-26T16:20:41.245Z,9.77
2019-06-26T16:23:20.779Z,8.60
2019-06-26T16:25:52.406Z,8.67
2019-06-26T16:28:22.662Z,9.33
2019-06-26T16:30:55.492Z,7.73
2019-06-26T16:33:25.847Z,14.87
2019-06-26T16:35:56.118Z,11.20
2019-06-26T16:38:26.356Z,10.17
2019-06-26T16:40:56.583Z,9.20
2019-06-26T16:43:27.092Z,10.70
2019-06-26T16:45:57.331Z,12.47
2019-06-26T16:48:27.659Z,6.93
2019-06-26T16:50:57.984Z,10.87
2019-06-26T16:53:28.256Z,11.47
2019-06-26T16:55:58.519Z,12.03
2019-06-26T16:58:30.323Z,8.33
2019-06-26T17:01:00.587Z,11.43
2019-06-26T17:03:30.901Z,9.43
2019-06-26T17:06:01.268Z,10.33
2019-06-26T17:08:32.683Z,12.47
2019-06-26T17:11:03.511Z,10.83
2019-06-26T17:13:33.910Z,12.70
2019-06-26T17:16:04.410Z,13.87
2019-06-26T17:18:34.676Z,13.33
2019-06-26T17:21:04.971Z,10.60
2019-06-26T17:23:35.186Z,12.10
2019-06-26T17:26:07.947Z,9.90
2019-06-26T17:28:38.144Z,14.37
2019-06-26T17:31:08.508Z,10.27
2019-06-26T17:33:38.756Z,15.17
2019-06-26T17:36:08.999Z,8.77
2019-06-26T17:38:41.790Z,12.27
2019-06-26T17:41:11.993Z,9.50
2019-06-26T17:43:42.268Z,11.20
2019-06-26T17:46:12.505Z,15.60
2019-06-26T17:48:45.607Z,11.50
2019-06-26T17:51:15.821Z,18.87
2019-06-26T17:53:51.313Z,11.27
2019-06-26T17:56:21.597Z,7.83
2019-06-26T17:58:51.930Z,11.33
2019-06-26T18:01:22.312Z,10.83
2019-06-26T18:03:52.619Z,11.30
2019-06-26T18:06:29.273Z,12.33
2019-06-26T18:08:59.840Z,13.60
2019-06-26T18:11:30.130Z,11.20
2019-06-26T18:14:00.324Z,11.17
2019-06-26T18:16:30.641Z,9.63
2019-06-26T18:19:12.573Z,10.27
2019-06-26T18:21:42.808Z,9.43
2019-06-26T18:24:13.005Z,9.67
2019-06-26T18:26:43.273Z,14.27
2019-06-26T18:29:23.151Z,12.13
2019-06-26T18:31:55.506Z,13.27
2019-06-26T18:34:33.786Z,12.87
2019-06-26T18:37:05.643Z,12.93
2019-06-26T18:39:35.877Z,11.67
2019-06-26T18:42:06.132Z,12.50
2019-06-26T18:44:36.725Z,13.60
2019-06-26T18:47:11.847Z,10.10
2019-06-26T18:49:42.105Z,19.47
2019-06-26T18:52:12.360Z,13.30
2019-06-26T18:54:42.693Z,8.53
2019-06-26T18:57:12.948Z,13.83
2019-06-26T18:59:44.177Z,16.93
2019-06-26T19:02:24.184Z,18.73
2019-06-26T19:04:55.523Z,16.90
2019-06-26T19:07:25.927Z,14.60
2019-06-26T19:10:02.915Z,15.27
2019-06-26T19:12:33.282Z,15.13
2019-06-26T19:15:05.907Z,12.97
2019-06-26T19:17:42.417Z,15.90
2019-06-26T19:20:14.923Z,12.20
2019-06-26T19:22:47.981Z,9.37
2019-06-26T19:25:19.845Z,15.90
2019-06-26T19:27:50.207Z,13.33
2019-06-26T19:30:20.492Z,11.33
2019-06-26T19:32:50.763Z,13.67
2019-06-26T19:35:25.834Z,11.83
2019-06-26T19:37:56.078Z,10.13
2019-06-26T19:40:28.193Z,14.50
2019-06-26T19:42:58.422Z,11.97
2019-06-26T19:45:29.587Z,9.47
2019-06-26T19:47:59.794Z,14.70
2019-06-26T19:50:30.061Z,12.90
2019-06-26T19:53:00.296Z,11.97
2019-06-26T19:55:30.612Z,12.37
2019-06-26T19:58:00.885Z,12.37
2019-06-26T20:00:31.426Z,11.77
2019-06-26T20:03:01.881Z,8.87
2019-06-26T20:05:32.746Z,8.67
2019-06-26T20:08:03.356Z,11.47
2019-06-26T20:10:56.350Z,15.50
2019-06-26T20:13:26.694Z,11.50
2019-06-26T20:15:57.021Z,12.13
2019-06-26T20:18:28.320Z,12.07
2019-06-26T20:20:58.723Z,14.17
2019-06-26T20:23:29.540Z,10.53
2019-06-26T20:26:00.233Z,12.63
2019-06-26T20:28:30.895Z,9.97
2019-06-26T20:31:01.806Z,11.37
2019-06-26T20:33:32.467Z,10.80
2019-06-26T20:36:07.495Z,13.37
2019-06-26T20:38:39.891Z,10.97
2019-06-26T20:41:10.658Z,10.83
2019-06-26T20:43:41.819Z,14.87
2019-06-26T20:46:15.404Z,11.37
2019-06-26T20:48:45.167Z,10.77
2019-06-26T20:51:16.303Z,16.77
2019-06-26T20:53:46.873Z,13.67
2019-06-26T20:56:17.470Z,9.27
2019-06-26T20:58:48.285Z,11.33
2019-06-26T21:01:21.166Z,9.77
2019-06-26T21:03:51.872Z,14.07
2019-06-26T21:06:23.125Z,10.27
2019-06-26T21:08:53.883Z,13.80
2019-06-26T21:11:24.508Z,12.23
2019-06-26T21:13:55.236Z,12.23
2019-06-26T21:16:26.079Z,11.73
2019-06-26T21:18:56.887Z,9.67
2019-06-26T21:21:27.648Z,12.33
2019-06-26T21:23:58.363Z,13.67
2019-06-26T21:26:29.546Z,10.67
2019-06-26T21:29:02.713Z,11.30
2019-06-26T21:31:33.453Z,9.97
2019-06-26T21:34:05.194Z,12.40
2019-06-26T21:36:36.056Z,9.07
2019-06-26T21:39:07.815Z,16.83
2019-06-26T21:41:40.682Z,12.47
2019-06-26T21:44:11.426Z,14.63
2019-06-26T21:46:55.781Z,9.03
2019-06-26T21:49:26.400Z,14.00
2019-06-26T21:51:57.052Z,12.20
2019-06-26T21:54:27.888Z,12.53
2019-06-26T21:57:16.296Z,10.00
2019-06-26T22:00:05.900Z,10.00
2019-06-26T22:02:57.663Z,11.83
2019-06-26T22:05:28.616Z,9.37
2019-06-26T22:08:16.604Z,9.50
2019-06-26T22:10:48.789Z,11.73
2019-06-26T22:13:21.350Z,11.63
2019-06-26T22:15:53.097Z,11.87
2019-06-26T22:18:23.941Z,12.67
2019-06-26T22:20:54.652Z,12.97
2019-06-26T22:23:25.365Z,11.30
2019-06-26T22:25:59.901Z,9.93
2019-06-26T22:28:52.062Z,10.77
2019-06-26T22:31:29.101Z,9.73
2019-06-26T22:34:05.518Z,10.03
2019-06-26T22:36:35.848Z,14.00
2019-06-26T22:39:06.548Z,9.27
2019-06-26T22:41:36.804Z,11.20
2019-06-26T22:44:07.055Z,12.47
2019-06-26T22:46:37.351Z,10.00
2019-06-26T22:49:07.658Z,9.43
2019-06-26T22:51:38.843Z,8.77
2019-06-26T22:54:10.406Z,11.53
2019-06-26T22:56:41.553Z,12.23
2019-06-26T22:59:11.853Z,9.13
2019-06-26T23:01:42.066Z,10.30
2019-06-26T23:04:12.333Z,10.00
2019-06-26T23:06:48.676Z,11.20
2019-06-26T23:09:18.986Z,9.23
2019-06-26T23:11:49.217Z,9.73
2019-06-26T23:14:19.520Z,9.03
2019-06-26T23:16:50.773Z,11.00
2019-06-26T23:19:21.001Z,10.27
2019-06-26T23:21:51.237Z,11.87
2019-06-26T23:24:21.483Z,10.80
2019-06-26T23:26:51.699Z,10.63
2019-06-26T23:29:21.973Z,8.10
2019-06-26T23:31:52.243Z,9.03
2019-06-26T23:34:28.674Z,8.03
2019-06-26T23:36:58.930Z,9.53
2019-06-26T23:39:29.171Z,7.87
2019-06-26T23:41:59.386Z,9.80
2019-06-26T23:44:29.652Z,7.03
2019-06-26T23:46:59.919Z,7.23
2019-06-26T23:49:30.510Z,10.30
2019-06-26T23:52:00.748Z,10.63
2019-06-26T23:54:31.030Z,9.17
2019-06-26T23:57:01.295Z,7.30
2019-06-26T23:59:31.578Z,8.13
